createdAt,value
2023-03-20T05:07:17.434Z,1011.85
2023-03-20T05:08:17.436Z,1011.82
2023-03-20T05:10:17.403Z,1011.89
2023-03-20T05:11:17.392Z,1011.90
2023-03-20T05:14:17.364Z,1011.96
2023-03-20T05:15:17.358Z,1011.91
2023-03-20T05:16:17.359Z,1011.94
2023-03-20T05:17:17.334Z,1011.96
2023-03-20T05:18:17.317Z,1011.90
2023-03-20T05:19:17.307Z,1011.92
2023-03-20T05:20:17.300Z,1011.92
2023-03-20T05:21:17.304Z,1011.97
2023-03-20T05:23:17.264Z,1011.99
2023-03-20T05:24:17.259Z,1011.95
2023-03-20T05:25:17.244Z,1011.98
2023-03-20T05:26:17.280Z,1011.99
2023-03-20T05:27:17.222Z,1012.03
2023-03-20T05:28:17.212Z,1011.97
2023-03-20T05:29:17.207Z,1012.04
2023-03-20T05:30:17.191Z,1012.02
2023-03-20T05:31:17.202Z,1012.07
2023-03-20T05:32:17.172Z,1012.06
2023-03-20T05:33:17.210Z,1012.05
2023-03-20T05:34:17.149Z,1012.10
2023-03-20T05:35:17.140Z,1012.10
2023-03-20T05:36:17.206Z,1012.10
2023-03-20T05:37:17.136Z,1012.09
2023-03-20T05:38:17.107Z,1012.09
2023-03-20T05:39:17.095Z,1012.10
2023-03-20T05:41:17.075Z,1012.04
2023-03-20T05:42:17.065Z,1012.01
2023-03-20T05:43:17.060Z,1012.05
2023-03-20T05:45:17.029Z,1012.04
2023-03-20T05:46:17.090Z,1012.07
2023-03-20T05:47:17.010Z,1012.08
2023-03-20T05:48:17.001Z,1012.06
2023-03-20T05:49:16.993Z,1012.06
2023-03-20T05:50:16.991Z,1012.03
2023-03-20T05:51:16.971Z,1012.06
2023-03-20T05:52:16.960Z,1012.07
2023-03-20T05:53:16.968Z,1012.09
2023-03-20T05:54:16.939Z,1012.10
2023-03-20T05:55:16.928Z,1012.08
2023-03-20T05:56:16.921Z,1012.05
2023-03-20T05:57:16.908Z,1012.08
2023-03-20T05:58:16.899Z,1012.06
2023-03-20T05:59:16.886Z,1012.09
2023-03-20T06:00:16.879Z,1012.09
2023-03-20T06:01:16.865Z,1012.04
2023-03-20T06:02:16.869Z,1012.03
2023-03-20T06:03:16.901Z,1012.03
2023-03-20T06:04:16.837Z,1012.03
2023-03-20T06:05:16.825Z,1012.01
2023-03-20T06:06:16.815Z,1011.94
2023-03-20T06:07:16.814Z,1011.96
2023-03-20T06:08:16.793Z,1011.95
2023-03-20T06:10:16.772Z,1011.99
2023-03-20T06:11:16.764Z,1011.94
2023-03-20T06:12:16.758Z,1011.99
2023-03-20T06:13:16.741Z,1012.07
2023-03-20T06:14:16.732Z,1012.08
2023-03-20T06:15:16.737Z,1012.10
2023-03-20T06:16:16.767Z,1012.09
2023-03-20T06:17:16.699Z,1012.11
2023-03-20T06:18:16.701Z,1012.10
2023-03-20T06:19:16.681Z,1012.15
2023-03-20T06:20:16.670Z,1012.12
2023-03-20T06:21:16.659Z,1012.03
2023-03-20T06:23:16.636Z,1012.11
2023-03-20T06:24:16.625Z,1012.10
2023-03-20T06:25:16.634Z,1012.13
2023-03-20T06:26:16.606Z,1012.14
2023-03-20T06:27:16.592Z,1012.16
2023-03-20T06:29:16.802Z,1012.15
2023-03-20T06:30:16.602Z,1012.14
2023-03-20T06:31:16.626Z,1012.21
2023-03-20T06:32:16.539Z,1012.28
2023-03-20T06:33:16.625Z,1012.27
2023-03-20T06:34:16.515Z,1012.24
2023-03-20T06:35:16.510Z,1012.24
2023-03-20T06:36:16.499Z,1012.26
2023-03-20T06:37:16.485Z,1012.31
2023-03-20T06:38:16.479Z,1012.33
2023-03-20T06:39:16.465Z,1012.32
2023-03-20T06:40:16.455Z,1012.25
2023-03-20T06:41:27.830Z,1012.28
2023-03-20T06:44:16.415Z,1012.32
2023-03-20T06:45:16.400Z,1012.35
2023-03-20T06:46:16.443Z,1012.32
2023-03-20T06:47:16.404Z,1012.38
2023-03-20T06:48:16.370Z,1012.36
2023-03-20T06:50:16.347Z,1012.39
2023-03-20T06:51:16.337Z,1012.35
2023-03-20T06:54:16.307Z,1012.40
2023-03-20T06:55:16.297Z,1012.35
2023-03-20T06:56:16.285Z,1012.37
2023-03-20T06:57:16.297Z,1012.36
2023-03-20T06:59:16.253Z,1012.41
2023-03-20T07:00:16.244Z,1012.41
2023-03-20T07:01:16.238Z,1012.41
2023-03-20T07:02:16.233Z,1012.45
2023-03-20T07:03:16.221Z,1012.45
2023-03-20T07:04:16.206Z,1012.52
2023-03-20T07:05:16.238Z,1012.50
2023-03-20T07:06:16.185Z,1012.54
2023-03-20T07:07:16.177Z,1012.46
2023-03-20T07:08:16.173Z,1012.50
2023-03-20T07:09:16.156Z,1012.51
2023-03-20T07:10:16.143Z,1012.50
2023-03-20T07:11:16.131Z,1012.49
2023-03-20T07:12:16.143Z,1012.49
2023-03-20T07:13:16.130Z,1012.49
2023-03-20T07:14:16.107Z,1012.55
2023-03-20T07:15:16.100Z,1012.53
2023-03-20T07:16:16.101Z,1012.57
2023-03-20T07:17:16.072Z,1012.60
2023-03-20T07:19:16.051Z,1012.66
2023-03-20T07:20:16.047Z,1012.69
2023-03-20T07:21:16.031Z,1012.70
2023-03-20T07:22:16.020Z,1012.71
2023-03-20T07:23:16.008Z,1012.71
2023-03-20T07:24:16.003Z,1012.69
2023-03-20T07:25:15.991Z,1012.73
2023-03-20T07:26:15.989Z,1012.68
2023-03-20T07:27:15.965Z,1012.73
2023-03-20T07:29:15.970Z,1012.67
2023-03-20T07:30:15.935Z,1012.67
2023-03-20T07:31:15.952Z,1012.71
2023-03-20T07:32:15.915Z,1012.71
2023-03-20T07:33:15.975Z,1012.74
2023-03-20T07:34:15.894Z,1012.78
2023-03-20T07:35:15.882Z,1012.77
2023-03-20T07:36:15.873Z,1012.80
2023-03-20T07:37:15.878Z,1012.82
2023-03-20T07:39:15.838Z,1012.79
2023-03-20T07:40:15.834Z,1012.79
2023-03-20T07:41:15.818Z,1012.77
2023-03-20T07:42:15.807Z,1012.73
2023-03-20T07:43:15.797Z,1012.72
2023-03-20T07:44:15.788Z,1012.74
2023-03-20T07:45:15.792Z,1012.79
2023-03-20T07:46:15.841Z,1012.74
2023-03-20T07:47:15.753Z,1012.74
2023-03-20T07:48:15.745Z,1012.71
2023-03-20T07:50:15.717Z,1012.73
2023-03-20T07:51:15.708Z,1012.70
2023-03-20T07:52:15.704Z,1012.79
2023-03-20T07:53:15.691Z,1012.78
2023-03-20T07:54:15.678Z,1012.81
2023-03-20T07:56:15.657Z,1012.78
2023-03-20T07:57:15.644Z,1012.79
2023-03-20T07:58:15.643Z,1012.81
2023-03-20T07:59:15.622Z,1012.76
2023-03-20T08:00:15.921Z,1012.80
2023-03-20T08:02:15.593Z,1012.80
2023-03-20T08:03:15.657Z,1012.84
2023-03-20T08:04:15.653Z,1012.90
2023-03-20T08:05:15.562Z,1012.82
2023-03-20T08:06:15.546Z,1012.80
2023-03-20T08:07:15.535Z,1012.87
2023-03-20T08:08:15.529Z,1012.84
2023-03-20T08:09:15.521Z,1012.82
2023-03-20T08:10:15.508Z,1012.85
2023-03-20T08:11:15.495Z,1012.83
2023-03-20T08:12:15.493Z,1012.84
2023-03-20T08:13:15.477Z,1012.80
2023-03-20T08:14:15.476Z,1012.82
2023-03-20T08:15:15.456Z,1012.83
2023-03-20T08:16:15.515Z,1012.82
2023-03-20T08:17:18.673Z,1012.78
2023-03-20T08:18:15.429Z,1012.75
2023-03-20T08:19:15.413Z,1012.83
2023-03-20T08:20:15.406Z,1012.78
2023-03-20T08:21:15.394Z,1012.82
2023-03-20T08:22:15.384Z,1012.83
2023-03-20T08:23:15.373Z,1012.86
2023-03-20T08:25:15.350Z,1012.90
2023-03-20T08:26:15.350Z,1012.74
2023-03-20T08:27:15.335Z,1012.81
2023-03-20T08:28:15.320Z,1012.87
2023-03-20T08:29:15.310Z,1012.83
2023-03-20T08:30:15.300Z,1012.86
2023-03-20T08:32:15.278Z,1012.91
2023-03-20T08:34:15.260Z,1012.86
2023-03-20T08:35:31.792Z,1012.87
2023-03-20T08:36:16.347Z,1012.69
2023-03-20T08:37:15.226Z,1012.93
2023-03-20T08:39:15.207Z,1012.86
2023-03-20T08:42:15.173Z,1012.83
2023-03-20T08:43:15.164Z,1012.82
2023-03-20T08:45:15.148Z,1012.84
2023-03-20T08:46:15.256Z,1012.85
2023-03-20T08:47:15.123Z,1012.70
2023-03-20T08:48:15.109Z,1012.85
2023-03-20T08:49:15.116Z,1012.88
2023-03-20T08:50:15.090Z,1012.86
2023-03-20T08:51:15.090Z,1012.83
2023-03-20T08:52:15.078Z,1012.83
2023-03-20T08:53:15.071Z,1012.81
2023-03-20T08:54:15.057Z,1012.89
2023-03-20T08:55:15.029Z,1012.92
2023-03-20T08:56:15.021Z,1012.84
2023-03-20T08:57:15.018Z,1012.79
2023-03-20T08:58:15.001Z,1012.78
2023-03-20T08:59:14.998Z,1012.77
2023-03-20T09:00:14.980Z,1012.80
2023-03-20T09:01:14.969Z,1012.71
2023-03-20T09:02:15.090Z,1012.83
2023-03-20T09:03:15.109Z,1012.78
2023-03-20T09:04:14.933Z,1012.81
2023-03-20T09:05:14.948Z,1012.79
2023-03-20T09:06:14.913Z,1012.83
2023-03-20T09:07:14.901Z,1012.81
2023-03-20T09:08:14.889Z,1012.89
2023-03-20T09:09:14.882Z,1012.79
2023-03-20T09:10:14.869Z,1012.80
2023-03-20T09:11:14.861Z,1012.83
2023-03-20T09:12:14.849Z,1012.88
2023-03-20T09:13:26.575Z,1012.85
2023-03-20T09:15:14.817Z,1012.85
2023-03-20T09:16:15.140Z,1012.84
2023-03-20T09:17:14.820Z,1012.83
2023-03-20T09:18:14.784Z,1012.88
2023-03-20T09:19:14.775Z,1012.92
2023-03-20T09:20:14.762Z,1012.81
2023-03-20T09:21:14.778Z,1012.83
2023-03-20T09:22:14.752Z,1012.90
2023-03-20T09:23:14.734Z,1012.87
2023-03-20T09:24:14.720Z,1012.89
2023-03-20T09:25:14.710Z,1012.89
2023-03-20T09:26:14.703Z,1012.90
2023-03-20T09:27:14.693Z,1012.93
2023-03-20T09:29:14.669Z,1012.88
2023-03-20T09:30:14.657Z,1012.94
2023-03-20T09:31:14.723Z,1012.93
2023-03-20T09:32:14.634Z,1012.90
2023-03-20T09:33:14.663Z,1012.94
2023-03-20T09:34:14.614Z,1012.81
2023-03-20T09:35:14.613Z,1012.87
2023-03-20T09:36:14.614Z,1012.96
2023-03-20T09:37:14.604Z,1012.95
2023-03-20T09:38:14.571Z,1012.94
2023-03-20T09:40:14.551Z,1012.96
2023-03-20T09:41:14.540Z,1012.97
2023-03-20T09:42:14.529Z,1012.93
2023-03-20T09:43:14.529Z,1013.01
2023-03-20T09:44:14.517Z,1013.01
2023-03-20T09:45:14.498Z,1013.02
2023-03-20T09:46:14.549Z,1012.89
2023-03-20T09:47:20.830Z,1012.99
2023-03-20T09:48:15.496Z,1013.00
2023-03-20T09:50:14.468Z,1013.06
2023-03-20T09:51:14.435Z,1013.10
2023-03-20T09:52:14.421Z,1013.09
2023-03-20T09:53:14.432Z,1013.00
2023-03-20T09:54:14.400Z,1013.14
2023-03-20T09:55:14.538Z,1013.00
2023-03-20T09:56:14.379Z,1013.04
2023-03-20T09:57:14.369Z,1013.01
2023-03-20T09:58:14.362Z,1012.99
2023-03-20T09:59:14.350Z,1013.05
2023-03-20T10:00:14.341Z,1013.05
2023-03-20T10:02:14.351Z,1013.04
2023-03-20T10:03:14.310Z,1013.03
2023-03-20T10:04:14.364Z,1013.07
2023-03-20T10:05:14.285Z,1013.11
2023-03-20T10:06:14.276Z,1013.09
2023-03-20T10:07:14.263Z,1013.06
2023-03-20T10:08:16.180Z,1013.10
2023-03-20T10:09:14.262Z,1013.16
2023-03-20T10:10:14.228Z,1013.13
2023-03-20T10:11:14.225Z,1013.08
2023-03-20T10:12:14.206Z,1013.02
2023-03-20T10:13:14.198Z,1012.98
2023-03-20T10:14:15.644Z,1012.98
2023-03-20T10:15:14.177Z,1012.98
2023-03-20T10:16:14.225Z,1012.91
2023-03-20T10:17:14.166Z,1013.02
2023-03-20T10:18:14.145Z,1013.00
2023-03-20T10:19:14.133Z,1013.00
2023-03-20T10:20:14.120Z,1012.93
2023-03-20T10:21:14.116Z,1012.94
2023-03-20T10:23:14.093Z,1012.82
2023-03-20T10:25:14.090Z,1012.89
2023-03-20T10:26:14.065Z,1012.84
2023-03-20T10:27:14.055Z,1012.83
2023-03-20T10:28:14.046Z,1012.90
2023-03-20T10:29:14.028Z,1012.87
2023-03-20T10:30:14.033Z,1012.89
2023-03-20T10:31:14.059Z,1012.87
2023-03-20T10:32:13.997Z,1012.88
2023-03-20T10:33:14.030Z,1012.92
2023-03-20T10:34:13.990Z,1012.85
2023-03-20T10:35:13.972Z,1012.88
2023-03-20T10:37:16.748Z,1012.86
2023-03-20T10:38:13.939Z,1012.82
2023-03-20T10:39:13.924Z,1012.88
2023-03-20T10:40:13.911Z,1012.84
2023-03-20T10:41:13.922Z,1012.88
2023-03-20T10:42:13.886Z,1012.78
2023-03-20T10:44:13.871Z,1012.81
2023-03-20T10:45:13.858Z,1012.72
2023-03-20T10:46:13.848Z,1012.77
2023-03-20T10:47:13.887Z,1012.74
2023-03-20T10:49:13.820Z,1012.66
2023-03-20T10:50:13.803Z,1012.69
2023-03-20T10:51:13.794Z,1012.64
2023-03-20T10:52:13.778Z,1012.66
2023-03-20T10:53:13.782Z,1012.66
2023-03-20T10:54:13.764Z,1012.61
2023-03-20T10:55:13.751Z,1012.72
2023-03-20T10:56:16.792Z,1012.67
2023-03-20T10:57:13.754Z,1012.69
2023-03-20T10:58:13.718Z,1012.67
2023-03-20T10:59:13.709Z,1012.68
2023-03-20T11:00:13.704Z,1012.59
2023-03-20T11:01:13.755Z,1012.59
2023-03-20T11:02:13.677Z,1012.64
2023-03-20T11:04:13.726Z,1012.61
2023-03-20T11:06:13.639Z,1012.61
2023-03-20T11:08:13.617Z,1012.55
2023-03-20T11:09:13.610Z,1012.47
2023-03-20T11:10:13.596Z,1012.51
2023-03-20T11:12:13.573Z,1012.52
2023-03-20T11:13:13.582Z,1012.54
2023-03-20T11:14:13.551Z,1012.55
2023-03-20T11:15:13.542Z,1012.49
2023-03-20T11:16:13.652Z,1012.48
2023-03-20T11:17:13.523Z,1012.52
2023-03-20T11:18:13.510Z,1012.47
2023-03-20T11:19:13.499Z,1012.46
2023-03-20T11:20:13.489Z,1012.47
2023-03-20T11:21:13.478Z,1012.45
2023-03-20T11:23:13.457Z,1012.55
2023-03-20T11:25:13.437Z,1012.43
2023-03-20T11:26:13.424Z,1012.48
2023-03-20T11:28:13.404Z,1012.36
2023-03-20T11:29:13.414Z,1012.37
2023-03-20T11:31:13.375Z,1012.40
2023-03-20T11:32:13.373Z,1012.47
2023-03-20T11:33:13.370Z,1012.41
2023-03-20T11:34:13.340Z,1012.44
2023-03-20T11:35:13.333Z,1012.37
2023-03-20T11:36:13.368Z,1012.44
2023-03-20T11:38:13.295Z,1012.41
2023-03-20T11:39:13.283Z,1012.44
2023-03-20T11:40:13.272Z,1012.33
2023-03-20T11:41:13.262Z,1012.31
2023-03-20T11:43:13.243Z,1012.36
2023-03-20T11:45:13.247Z,1012.37
2023-03-20T11:46:13.310Z,1012.34
2023-03-20T11:47:13.202Z,1012.34
2023-03-20T11:48:13.188Z,1012.35
2023-03-20T11:49:13.182Z,1012.34
2023-03-20T11:50:13.164Z,1012.35
2023-03-20T11:51:13.158Z,1012.32
2023-03-20T11:52:13.149Z,1012.33
2023-03-20T11:53:13.135Z,1012.38
2023-03-20T11:54:13.125Z,1012.38
2023-03-20T11:55:13.115Z,1012.38
2023-03-20T11:57:13.096Z,1012.49
2023-03-20T11:58:13.087Z,1012.36
2023-03-20T11:59:13.084Z,1012.40
2023-03-20T12:02:25.994Z,1012.40
2023-03-20T12:03:25.938Z,1012.46
2023-03-20T12:04:25.893Z,1012.43
2023-03-20T12:06:25.880Z,1012.42
2023-03-20T12:07:25.860Z,1012.48
2023-03-20T12:08:25.853Z,1012.40
2023-03-20T12:09:25.840Z,1012.47
2023-03-20T12:10:25.830Z,1012.40
2023-03-20T12:11:25.819Z,1012.41
2023-03-20T12:13:25.801Z,1012.43
2023-03-20T12:14:25.789Z,1012.41
2023-03-20T12:15:25.808Z,1012.45
2023-03-20T12:16:25.785Z,1012.44
2023-03-20T12:17:25.757Z,1012.28
2023-03-20T12:19:25.737Z,1012.28
2023-03-20T12:20:25.727Z,1012.40
2023-03-20T12:21:25.725Z,1012.38
2023-03-20T12:22:25.719Z,1012.30
2023-03-20T12:23:25.693Z,1012.37
2023-03-20T12:24:25.687Z,1012.35
2023-03-20T12:25:25.673Z,1012.40
2023-03-20T12:26:25.675Z,1012.39
2023-03-20T12:27:25.665Z,1012.36
2023-03-20T12:28:25.655Z,1012.31
2023-03-20T12:29:25.629Z,1012.39
2023-03-20T12:31:25.695Z,1012.39
2023-03-20T12:32:25.599Z,1012.43
2023-03-20T12:33:25.588Z,1012.39
2023-03-20T12:34:25.675Z,1012.36
2023-03-20T12:35:25.565Z,1012.33
2023-03-20T12:36:25.559Z,1012.31
2023-03-20T12:37:25.545Z,1012.33
2023-03-20T12:38:25.542Z,1012.33
2023-03-20T12:39:25.536Z,1012.27
2023-03-20T12:41:25.504Z,1012.30
2023-03-20T12:42:25.496Z,1012.25
2023-03-20T12:43:25.485Z,1012.30
2023-03-20T12:44:25.476Z,1012.25
2023-03-20T12:45:25.463Z,1012.24
2023-03-20T12:46:25.469Z,1012.31
2023-03-20T12:47:25.439Z,1012.23
2023-03-20T12:48:25.430Z,1012.20
2023-03-20T12:49:25.418Z,1012.22
2023-03-20T12:50:25.431Z,1012.21
2023-03-20T12:51:25.402Z,1012.22
2023-03-20T12:52:25.416Z,1012.19
2023-03-20T12:53:25.375Z,1012.21
2023-03-20T12:54:25.370Z,1012.15
2023-03-20T12:55:25.353Z,1012.12
2023-03-20T12:56:25.356Z,1012.14
2023-03-20T12:57:25.331Z,1012.21
2023-03-20T12:58:25.325Z,1012.21
2023-03-20T12:59:25.320Z,1012.20
2023-03-20T13:00:25.303Z,1012.17
2023-03-20T13:01:25.300Z,1012.18
2023-03-20T13:02:25.373Z,1012.21
2023-03-20T13:03:25.271Z,1012.11
2023-03-20T13:04:25.262Z,1012.11
2023-03-20T13:05:25.247Z,1012.09
2023-03-20T13:06:25.260Z,1012.07
2023-03-20T13:07:25.227Z,1012.14
2023-03-20T13:08:25.229Z,1012.09
2023-03-20T13:09:25.206Z,1012.02
2023-03-20T13:10:25.195Z,1012.14
2023-03-20T13:11:25.184Z,1012.08
2023-03-20T13:13:25.164Z,1012.07
2023-03-20T13:14:25.158Z,1012.06
2023-03-20T13:15:25.139Z,1012.02
2023-03-20T13:16:25.161Z,1012.09
2023-03-20T13:17:25.126Z,1012.14
2023-03-20T13:18:25.119Z,1012.12
2023-03-20T13:20:25.086Z,1012.16
2023-03-20T13:21:25.077Z,1012.14
2023-03-20T13:22:25.204Z,1012.12
2023-03-20T13:23:25.070Z,1012.04
2023-03-20T13:24:25.046Z,1012.11
2023-03-20T13:28:25.002Z,1012.10
2023-03-20T13:29:27.538Z,1012.12
2023-03-20T13:30:24.986Z,1012.07
2023-03-20T13:31:25.015Z,1012.11
2023-03-20T13:32:24.959Z,1012.02
2023-03-20T13:33:24.968Z,1011.94
2023-03-20T13:34:24.942Z,1011.93
2023-03-20T13:35:24.938Z,1011.93
2023-03-20T13:36:24.921Z,1011.95
2023-03-20T13:37:24.941Z,1011.96
2023-03-20T13:38:24.918Z,1011.97
2023-03-20T13:39:24.885Z,1011.97
2023-03-20T13:40:24.874Z,1011.95
2023-03-20T13:41:24.865Z,1011.94
2023-03-20T13:42:24.854Z,1011.99
2023-03-20T13:43:24.844Z,1011.92
2023-03-20T13:44:24.834Z,1011.94
2023-03-20T13:45:24.821Z,1011.93
2023-03-20T13:46:24.854Z,1011.92
2023-03-20T13:47:24.799Z,1011.94
2023-03-20T13:48:24.792Z,1011.97
2023-03-20T13:49:24.778Z,1011.96
2023-03-20T13:50:24.766Z,1011.99
2023-03-20T13:51:24.761Z,1011.98
2023-03-20T13:52:24.747Z,1012.01
2023-03-20T13:53:24.737Z,1011.91
2023-03-20T13:54:24.751Z,1011.96
2023-03-20T13:55:24.717Z,1011.97
2023-03-20T13:56:24.705Z,1011.95
2023-03-20T13:57:24.693Z,1011.90
2023-03-20T13:59:24.672Z,1011.86
2023-03-20T14:00:24.660Z,1011.89
2023-03-20T14:01:24.683Z,1011.82
2023-03-20T14:02:24.642Z,1011.88
2023-03-20T14:03:24.637Z,1011.85
2023-03-20T14:04:24.674Z,1011.84
2023-03-20T14:05:24.606Z,1011.90
2023-03-20T14:06:24.598Z,1011.81
2023-03-20T14:07:24.585Z,1011.80
2023-03-20T14:08:24.576Z,1011.78
2023-03-20T14:09:24.565Z,1011.81
2023-03-20T14:10:24.584Z,1011.80
2023-03-20T14:11:24.544Z,1011.79
2023-03-20T14:13:27.415Z,1011.82
2023-03-20T14:14:24.519Z,1011.81
2023-03-20T14:15:24.500Z,1011.68
2023-03-20T14:17:24.485Z,1011.83
2023-03-20T14:18:24.475Z,1011.75
2023-03-20T14:19:24.457Z,1011.75
2023-03-20T14:20:24.462Z,1011.73
2023-03-20T14:21:24.439Z,1011.83
2023-03-20T14:22:24.425Z,1011.77
2023-03-20T14:24:24.410Z,1011.73
2023-03-20T14:25:24.391Z,1011.70
2023-03-20T14:26:24.407Z,1011.69
2023-03-20T14:27:36.862Z,1011.63
2023-03-20T14:28:24.362Z,1011.77
2023-03-20T14:29:24.350Z,1011.67
2023-03-20T14:30:24.340Z,1011.72
2023-03-20T14:31:24.348Z,1011.64
2023-03-20T14:32:24.318Z,1011.69
2023-03-20T14:33:24.420Z,1011.66
2023-03-20T14:34:24.297Z,1011.69
2023-03-20T14:35:24.286Z,1011.66
2023-03-20T14:36:24.278Z,1011.59
2023-03-20T14:37:24.264Z,1011.65
2023-03-20T14:38:24.256Z,1011.62
2023-03-20T14:39:24.249Z,1011.63
2023-03-20T14:41:24.236Z,1011.60
2023-03-20T14:42:25.068Z,1011.57
2023-03-20T14:43:24.202Z,1011.56
2023-03-20T14:44:24.201Z,1011.54
2023-03-20T14:45:24.183Z,1011.49
2023-03-20T14:47:24.162Z,1011.52
2023-03-20T14:48:24.154Z,1011.50
2023-03-20T14:49:24.138Z,1011.51
2023-03-20T14:50:24.126Z,1011.56
2023-03-20T14:51:24.116Z,1011.55
2023-03-20T14:52:24.109Z,1011.54
2023-03-20T14:53:24.099Z,1011.53
2023-03-20T14:54:24.087Z,1011.57
2023-03-20T14:55:24.073Z,1011.48
2023-03-20T14:57:24.052Z,1011.42
2023-03-20T14:58:24.062Z,1011.48
2023-03-20T14:59:24.032Z,1011.42
2023-03-20T15:00:24.021Z,1011.49
2023-03-20T15:01:24.165Z,1011.39
2023-03-20T15:03:23.988Z,1011.38
2023-03-20T15:04:23.980Z,1011.38
2023-03-20T15:05:23.974Z,1011.39
2023-03-20T15:06:23.956Z,1011.28
2023-03-20T15:07:23.945Z,1011.34
2023-03-20T15:08:23.937Z,1011.28
2023-03-20T15:09:23.923Z,1011.32
2023-03-20T15:10:23.915Z,1011.29
2023-03-20T15:11:23.904Z,1011.32
2023-03-20T15:14:23.890Z,1011.23
2023-03-20T15:15:23.858Z,1011.19
2023-03-20T15:16:23.854Z,1011.14
2023-03-20T15:17:23.861Z,1011.26
2023-03-20T15:18:23.831Z,1011.26
2023-03-20T15:19:23.816Z,1011.19
2023-03-20T15:20:23.808Z,1011.18
2023-03-20T15:21:23.813Z,1011.23
2023-03-20T15:22:23.784Z,1011.20
2023-03-20T15:23:23.775Z,1011.17
2023-03-20T15:24:23.773Z,1011.18
2023-03-20T15:25:23.756Z,1011.19
2023-03-20T15:27:23.735Z,1011.18
2023-03-20T15:28:23.735Z,1011.21
2023-03-20T15:29:23.716Z,1011.21
2023-03-20T15:30:23.732Z,1011.17
2023-03-20T15:31:23.691Z,1011.17
2023-03-20T15:32:23.679Z,1011.19
2023-03-20T15:33:23.675Z,1011.19
2023-03-20T15:34:23.662Z,1011.15
2023-03-20T15:36:23.641Z,1011.13
2023-03-20T15:37:23.657Z,1011.16
2023-03-20T15:38:23.617Z,1011.10
2023-03-20T15:39:23.618Z,1011.11
2023-03-20T15:40:23.600Z,1011.13
2023-03-20T15:41:23.586Z,1011.07
2023-03-20T15:42:23.580Z,1011.08
2023-03-20T15:43:23.567Z,1011.04
2023-03-20T15:44:23.555Z,1011.12
2023-03-20T15:45:23.541Z,1011.06
2023-03-20T15:46:23.549Z,1011.08
2023-03-20T15:47:23.526Z,1011.09
2023-03-20T15:49:23.503Z,1011.08
2023-03-20T15:50:23.517Z,1011.01
2023-03-20T15:51:23.485Z,1011.04
2023-03-20T15:52:23.468Z,1010.95
2023-03-20T15:53:23.460Z,1011.00
2023-03-20T15:54:23.447Z,1010.94
2023-03-20T15:55:23.437Z,1011.01
2023-03-20T15:56:23.425Z,1010.98
2023-03-20T15:57:23.418Z,1010.98
2023-03-20T15:58:23.405Z,1010.94
2023-03-20T16:00:23.385Z,1011.03
2023-03-20T16:01:23.430Z,1010.96
2023-03-20T16:02:23.390Z,1010.92
2023-03-20T16:03:23.377Z,1010.99
2023-03-20T16:05:23.339Z,1010.96
2023-03-20T16:06:23.325Z,1010.95
2023-03-20T16:07:23.313Z,1010.94
2023-03-20T16:08:23.302Z,1010.91
2023-03-20T16:09:23.296Z,1010.89
2023-03-20T16:10:23.280Z,1010.89
2023-03-20T16:11:23.274Z,1010.94
2023-03-20T16:12:23.274Z,1010.97
2023-03-20T16:13:23.251Z,1010.94
2023-03-20T16:14:23.238Z,1010.93
2023-03-20T16:15:23.231Z,1010.97
2023-03-20T16:16:23.288Z,1010.92
2023-03-20T16:17:23.208Z,1010.92
2023-03-20T16:18:23.216Z,1010.92
2023-03-20T16:20:23.175Z,1010.89
2023-03-20T16:21:23.167Z,1010.97
2023-03-20T16:22:23.160Z,1010.91
2023-03-20T16:23:23.145Z,1010.95
2023-03-20T16:24:23.135Z,1011.00
2023-03-20T16:27:23.104Z,1010.97
2023-03-20T16:28:23.097Z,1011.03
2023-03-20T16:29:23.095Z,1011.04
2023-03-20T16:30:23.068Z,1010.96
2023-03-20T16:32:23.048Z,1011.00
2023-03-20T16:33:23.039Z,1011.02
2023-03-20T16:34:23.051Z,1011.02
2023-03-20T16:35:23.018Z,1011.04
2023-03-20T16:37:22.994Z,1011.04
2023-03-20T16:38:22.985Z,1011.03
2023-03-20T16:39:22.975Z,1011.09
2023-03-20T16:40:22.963Z,1011.08
2023-03-20T16:41:22.953Z,1011.07
2023-03-20T16:42:22.950Z,1011.10
2023-03-20T16:43:22.941Z,1011.11
2023-03-20T16:45:22.912Z,1011.11
2023-03-20T16:46:23.012Z,1011.09
2023-03-20T16:47:22.895Z,1011.13
2023-03-20T16:48:22.876Z,1011.10
2023-03-20T16:49:22.868Z,1011.08
2023-03-20T16:50:22.880Z,1010.96
2023-03-20T16:52:22.833Z,1011.04
2023-03-20T16:53:22.858Z,1011.09
2023-03-20T16:54:22.842Z,1011.10
2023-03-20T16:55:22.863Z,1011.10
2023-03-20T16:56:22.823Z,1011.11
2023-03-20T16:57:22.785Z,1011.09
2023-03-20T16:58:22.771Z,1011.10
2023-03-20T17:00:22.790Z,1011.10
2023-03-20T17:01:22.743Z,1011.06
2023-03-20T17:02:22.787Z,1011.11
2023-03-20T17:03:22.733Z,1011.05
2023-03-20T17:04:22.744Z,1011.08
2023-03-20T17:05:22.703Z,1011.02
2023-03-20T17:06:22.710Z,1011.08
2023-03-20T17:07:22.681Z,1011.11
2023-03-20T17:09:22.666Z,1011.14
2023-03-20T17:10:22.647Z,1011.12
2023-03-20T17:13:22.616Z,1011.16
2023-03-20T17:14:22.609Z,1011.18
2023-03-20T17:15:22.592Z,1011.18
2023-03-20T17:16:22.629Z,1011.20
2023-03-20T17:17:22.579Z,1011.19
2023-03-20T17:18:22.730Z,1011.21
2023-03-20T17:19:22.557Z,1011.17
2023-03-20T17:20:22.553Z,1011.22
2023-03-20T17:21:22.552Z,1011.22
2023-03-20T17:22:22.537Z,1011.21
2023-03-20T17:24:22.502Z,1011.13
2023-03-20T17:25:22.495Z,1011.22
2023-03-20T17:26:22.488Z,1011.23
2023-03-20T17:28:22.474Z,1011.21
2023-03-20T17:29:22.446Z,1011.21
2023-03-20T17:30:22.481Z,1011.20
2023-03-20T17:31:22.502Z,1011.15
2023-03-20T17:33:22.524Z,1011.20
2023-03-20T17:34:22.399Z,1011.21
2023-03-20T17:35:22.405Z,1011.16
2023-03-20T17:36:22.381Z,1011.21
2023-03-20T17:37:22.369Z,1011.16
2023-03-20T17:38:22.378Z,1011.22
2023-03-20T17:39:22.375Z,1011.16
2023-03-20T17:40:22.346Z,1011.15
2023-03-20T17:41:22.322Z,1011.20
2023-03-20T17:42:22.325Z,1011.18
2023-03-20T17:44:22.302Z,1011.17
2023-03-20T17:45:22.302Z,1011.19
2023-03-20T17:46:22.371Z,1011.19
2023-03-20T17:47:22.259Z,1011.21
2023-03-20T17:49:22.242Z,1011.19
2023-03-20T17:50:22.238Z,1011.21
2023-03-20T17:51:22.225Z,1011.21
2023-03-20T17:52:22.213Z,1011.19
2023-03-20T17:54:22.209Z,1011.17
2023-03-20T17:55:22.375Z,1011.23
2023-03-20T17:56:22.166Z,1011.25
2023-03-20T17:57:22.154Z,1011.25
2023-03-20T17:58:22.142Z,1011.27
2023-03-20T18:00:22.192Z,1011.22
2023-03-20T18:01:22.238Z,1011.21
2023-03-20T18:02:22.101Z,1011.24
2023-03-20T18:05:22.152Z,1011.24
